createdAt,value
2022-11-30T00:00:45.730Z,4.89
2022-11-30T00:03:52.912Z,4.91
2022-11-30T00:07:00.461Z,4.89
2022-11-30T00:10:07.611Z,4.88
2022-11-30T00:13:14.704Z,4.89
2022-11-30T00:16:22.141Z,4.88
2022-11-30T00:19:28.933Z,4.89
2022-11-30T00:22:35.776Z,4.89
2022-11-30T00:25:43.393Z,4.89
2022-11-30T00:28:51.086Z,4.91
2022-11-30T00:31:58.154Z,4.92
2022-11-30T00:35:05.597Z,4.92
2022-11-30T00:38:12.597Z,4.91
2022-11-30T00:41:19.611Z,4.92
2022-11-30T00:44:27.047Z,4.91
2022-11-30T00:47:34.215Z,4.91
2022-11-30T00:50:41.331Z,4.91
2022-11-30T00:53:48.542Z,4.92
2022-11-30T00:56:56.033Z,4.91
2022-11-30T01:00:03.169Z,4.94
2022-11-30T01:03:10.333Z,4.92
2022-11-30T01:06:17.779Z,4.92
2022-11-30T01:09:24.950Z,4.92
2022-11-30T01:12:31.952Z,4.92
2022-11-30T01:15:39.530Z,4.92
2022-11-30T01:18:46.711Z,4.92
2022-11-30T01:21:53.862Z,4.91
2022-11-30T01:25:01.014Z,4.91
2022-11-30T01:28:07.813Z,4.89
2022-11-30T01:31:15.434Z,4.89
2022-11-30T01:34:22.563Z,4.92
2022-11-30T01:37:29.668Z,4.91
2022-11-30T01:40:36.974Z,4.91
2022-11-30T01:43:43.625Z,4.92
2022-11-30T01:46:51.096Z,4.94
2022-11-30T01:49:58.165Z,4.91
2022-11-30T01:53:04.654Z,4.92
2022-11-30T01:56:11.861Z,4.94
2022-11-30T01:59:19.947Z,4.94
2022-11-30T02:02:26.414Z,4.89
2022-11-30T02:05:33.518Z,4.88
2022-11-30T02:08:40.341Z,4.92
2022-11-30T02:11:46.953Z,4.91
2022-11-30T02:14:54.204Z,4.89
2022-11-30T02:18:01.171Z,4.95
2022-11-30T02:21:07.662Z,4.94
2022-11-30T02:24:14.235Z,4.94
2022-11-30T02:27:21.522Z,4.94
2022-11-30T02:30:28.354Z,4.94
2022-11-30T02:33:35.061Z,4.95
2022-11-30T02:36:42.215Z,4.94
2022-11-30T02:39:48.936Z,4.94
2022-11-30T02:42:55.770Z,4.94
2022-11-30T02:46:03.090Z,4.94
2022-11-30T02:49:09.524Z,4.94
2022-11-30T02:52:16.645Z,4.95
2022-11-30T02:55:23.788Z,4.95
2022-11-30T02:58:30.206Z,4.95
2022-11-30T03:01:37.529Z,4.95
2022-11-30T03:04:44.740Z,4.94
2022-11-30T03:07:51.364Z,4.95
2022-11-30T03:10:58.439Z,4.91
2022-11-30T03:14:05.159Z,4.94
2022-11-30T03:17:11.960Z,4.98
2022-11-30T03:20:18.719Z,4.99
2022-11-30T03:23:25.442Z,4.99
2022-11-30T03:26:32.287Z,4.96
2022-11-30T03:29:38.992Z,4.98
2022-11-30T03:32:46.132Z,4.98
2022-11-30T03:35:52.823Z,4.96
2022-11-30T03:38:59.614Z,4.98
2022-11-30T03:42:06.484Z,4.99
2022-11-30T03:45:13.164Z,5.01
2022-11-30T03:48:19.856Z,5.01
2022-11-30T03:51:26.651Z,5.01
2022-11-30T03:54:33.414Z,5.01
2022-11-30T03:57:40.585Z,5.01
2022-11-30T04:00:47.385Z,4.99
2022-11-30T04:03:54.186Z,5.01
2022-11-30T04:07:01.297Z,5.02
2022-11-30T04:10:08.798Z,5.01
2022-11-30T04:13:15.638Z,5.01
2022-11-30T04:16:22.813Z,4.99
2022-11-30T04:19:29.178Z,4.99
2022-11-30T04:22:36.299Z,4.99
2022-11-30T04:25:43.410Z,4.99
2022-11-30T04:28:49.841Z,5.01
2022-11-30T04:31:56.570Z,5.01
2022-11-30T04:35:03.412Z,5.01
2022-11-30T04:38:10.122Z,5.01
2022-11-30T04:41:17.372Z,5.02
2022-11-30T04:44:24.192Z,5.02
2022-11-30T04:47:31.073Z,5.04
2022-11-30T04:50:37.729Z,5.05
2022-11-30T04:53:44.874Z,5.07
2022-11-30T04:56:51.804Z,5.09
2022-11-30T04:59:58.604Z,5.05
2022-11-30T05:03:05.456Z,5.05
2022-11-30T05:06:12.425Z,5.07
2022-11-30T05:09:19.267Z,5.07
2022-11-30T05:12:25.815Z,5.09
2022-11-30T05:15:32.257Z,5.09
2022-11-30T05:18:39.581Z,5.10
2022-11-30T05:21:46.488Z,5.10
2022-11-30T05:24:53.377Z,5.10
2022-11-30T05:28:00.668Z,5.09
2022-11-30T05:31:07.274Z,5.10
2022-11-30T05:34:14.489Z,5.10
2022-11-30T05:37:21.599Z,5.10
2022-11-30T05:40:28.120Z,5.12
2022-11-30T05:43:35.452Z,5.13
2022-11-30T05:46:42.500Z,5.12
2022-11-30T05:49:49.324Z,5.13
2022-11-30T05:52:56.695Z,5.13
2022-11-30T05:56:03.573Z,5.10
2022-11-30T05:59:10.453Z,5.10
2022-11-30T06:02:17.073Z,5.12
2022-11-30T06:05:24.274Z,5.13
2022-11-30T06:08:31.254Z,5.16
2022-11-30T06:11:38.165Z,5.14
2022-11-30T06:14:45.572Z,5.14
2022-11-30T06:17:52.239Z,5.14
2022-11-30T06:20:59.247Z,5.16
2022-11-30T06:24:06.336Z,5.14
2022-11-30T06:27:12.828Z,5.16
2022-11-30T06:30:20.200Z,5.17
2022-11-30T06:33:27.025Z,5.20
2022-11-30T06:36:36.237Z,5.19
2022-11-30T06:40:05.393Z,5.17
2022-11-30T06:42:47.820Z,5.17
2022-11-30T06:45:54.838Z,5.16
2022-11-30T06:49:02.149Z,5.19
2022-11-30T06:52:09.083Z,5.20
2022-11-30T06:55:16.234Z,5.23
2022-11-30T06:58:24.230Z,5.23
2022-11-30T07:01:31.677Z,5.22
2022-11-30T07:04:38.964Z,5.23
2022-11-30T07:07:46.287Z,5.23
2022-11-30T07:10:54.005Z,5.22
2022-11-30T07:14:01.375Z,5.25
2022-11-30T07:17:08.636Z,5.27
2022-11-30T07:20:16.155Z,5.30
2022-11-30T07:23:23.413Z,5.30
2022-11-30T07:26:30.806Z,5.25
2022-11-30T07:29:38.215Z,5.27
2022-11-30T07:32:45.167Z,5.27
2022-11-30T07:35:52.995Z,5.27
2022-11-30T07:39:00.637Z,5.31
2022-11-30T07:42:07.629Z,5.32
2022-11-30T07:45:15.468Z,5.32
2022-11-30T07:48:22.820Z,5.34
2022-11-30T07:51:29.769Z,5.35
2022-11-30T07:54:37.112Z,5.34
2022-11-30T07:57:43.975Z,5.35
2022-11-30T08:00:51.009Z,5.37
2022-11-30T08:03:58.232Z,5.38
2022-11-30T08:07:05.106Z,5.41
2022-11-30T08:10:12.382Z,5.43
2022-11-30T08:13:19.203Z,5.46
2022-11-30T08:16:26.061Z,5.48
2022-11-30T08:19:32.506Z,5.49
2022-11-30T08:22:39.185Z,5.50
2022-11-30T08:25:46.324Z,5.49
2022-11-30T08:28:53.144Z,5.50
2022-11-30T08:31:59.841Z,5.52
2022-11-30T08:35:06.759Z,5.53
2022-11-30T08:38:13.529Z,5.55
2022-11-30T08:41:20.339Z,5.55
2022-11-30T08:44:27.498Z,5.55
2022-11-30T08:47:33.980Z,5.56
2022-11-30T08:50:41.180Z,5.57
2022-11-30T08:53:48.389Z,5.63
2022-11-30T08:56:54.751Z,5.59
2022-11-30T09:00:02.172Z,5.60
2022-11-30T09:03:09.202Z,5.63
2022-11-30T09:06:15.684Z,5.66
2022-11-30T09:09:22.593Z,5.67
2022-11-30T09:12:29.423Z,5.67
2022-11-30T09:15:36.336Z,5.68
2022-11-30T09:18:43.432Z,5.67
2022-11-30T09:21:52.291Z,5.67
2022-11-30T09:24:59.541Z,5.68
2022-11-30T09:28:10.869Z,5.68
2022-11-30T09:31:08.423Z,5.70
2022-11-30T09:34:15.307Z,5.68
2022-11-30T09:37:22.428Z,5.70
2022-11-30T09:40:34.016Z,5.73
2022-11-30T09:43:31.728Z,5.75
2022-11-30T09:46:38.559Z,5.75
2022-11-30T09:49:45.889Z,5.73
2022-11-30T09:52:52.729Z,5.77
2022-11-30T09:55:59.450Z,5.78
2022-11-30T09:59:06.565Z,5.78
2022-11-30T10:02:13.475Z,5.81
2022-11-30T10:05:20.253Z,5.82
2022-11-30T10:08:26.833Z,5.83
2022-11-30T10:11:33.594Z,5.86
2022-11-30T10:14:40.725Z,5.85
2022-11-30T10:17:47.462Z,5.86
2022-11-30T10:20:54.294Z,5.83
2022-11-30T10:24:01.476Z,5.82
2022-11-30T10:27:07.955Z,5.81
2022-11-30T10:30:14.942Z,5.82
2022-11-30T10:33:22.008Z,5.88
2022-11-30T10:36:28.427Z,5.89
2022-11-30T10:39:35.208Z,5.83
2022-11-30T10:42:42.182Z,5.88
2022-11-30T10:45:48.588Z,5.91
2022-11-30T10:48:55.620Z,5.89
2022-11-30T10:52:02.319Z,5.93
2022-11-30T10:55:09.096Z,5.95
2022-11-30T10:58:16.109Z,5.96
2022-11-30T11:01:22.843Z,5.93
2022-11-30T11:04:29.643Z,5.96
2022-11-30T11:07:36.415Z,5.93
2022-11-30T11:10:43.413Z,5.95
2022-11-30T11:13:50.194Z,5.93
2022-11-30T11:16:56.952Z,5.95
2022-11-30T11:20:03.943Z,5.98
2022-11-30T11:23:10.989Z,6.00
2022-11-30T11:26:17.873Z,6.03
2022-11-30T11:29:24.845Z,6.01
2022-11-30T11:32:31.302Z,6.03
2022-11-30T11:35:38.376Z,6.04
2022-11-30T11:38:45.589Z,6.01
2022-11-30T11:41:51.988Z,6.01
2022-11-30T11:44:59.439Z,6.07
2022-11-30T11:48:06.367Z,6.06
2022-11-30T11:51:13.308Z,6.07
2022-11-30T11:54:20.380Z,6.06
2022-11-30T11:57:27.130Z,6.06
2022-11-30T12:00:34.041Z,6.06
2022-11-30T12:03:40.831Z,6.06
2022-11-30T12:06:47.613Z,6.10
2022-11-30T12:09:54.500Z,6.10
2022-11-30T12:13:01.362Z,6.10
2022-11-30T12:16:08.333Z,6.10
2022-11-30T12:19:15.204Z,6.06
2022-11-30T12:22:22.145Z,6.03
2022-11-30T12:25:28.983Z,6.09
2022-11-30T12:28:35.664Z,6.07
2022-11-30T12:31:42.700Z,6.06
2022-11-30T12:34:49.391Z,6.04
2022-11-30T12:37:56.214Z,6.04
2022-11-30T12:41:03.437Z,6.06
2022-11-30T12:44:10.108Z,6.07
2022-11-30T12:47:16.858Z,6.07
2022-11-30T12:50:23.998Z,6.06
2022-11-30T12:53:30.521Z,6.01
2022-11-30T12:56:40.253Z,5.95
2022-11-30T12:59:40.300Z,5.91
2022-11-30T13:02:46.881Z,5.91
2022-11-30T13:05:53.900Z,5.92
2022-11-30T13:09:00.650Z,5.92
2022-11-30T13:12:07.112Z,5.92
2022-11-30T13:15:15.947Z,5.93
2022-11-30T13:18:22.498Z,5.89
2022-11-30T13:21:29.794Z,5.88
2022-11-30T13:24:36.874Z,5.89
2022-11-30T13:27:43.360Z,5.83
2022-11-30T13:30:50.363Z,5.83
2022-11-30T13:33:57.385Z,5.82
2022-11-30T13:37:04.182Z,5.82
2022-11-30T13:40:11.297Z,5.83
2022-11-30T13:43:18.063Z,5.82
2022-11-30T13:46:24.922Z,5.82
2022-11-30T13:49:31.954Z,5.78
2022-11-30T13:52:38.848Z,5.77
2022-11-30T13:55:45.614Z,5.74
2022-11-30T13:58:52.778Z,5.73
2022-11-30T14:04:34.690Z,5.75
2022-11-30T14:07:41.470Z,5.81
2022-11-30T14:10:48.460Z,5.75
2022-11-30T14:13:55.211Z,5.77
2022-11-30T14:17:02.165Z,5.68
2022-11-30T14:20:09.281Z,5.68
2022-11-30T14:23:16.132Z,5.70
2022-11-30T14:26:22.912Z,5.64
2022-11-30T14:29:29.934Z,5.67
2022-11-30T14:32:36.433Z,5.66
2022-11-30T14:35:43.635Z,5.66
2022-11-30T14:38:50.929Z,5.63
2022-11-30T14:41:57.404Z,5.60
2022-11-30T14:45:04.576Z,5.60
2022-11-30T14:48:11.866Z,5.60
2022-11-30T14:51:18.396Z,5.60
2022-11-30T14:54:25.659Z,5.57
2022-11-30T14:57:32.649Z,5.55
2022-11-30T15:00:39.562Z,5.52
2022-11-30T15:03:46.879Z,5.50
2022-11-30T15:06:53.629Z,5.50
2022-11-30T15:10:00.288Z,5.48
2022-11-30T15:13:07.049Z,5.48
2022-11-30T15:16:14.001Z,5.46
2022-11-30T15:19:20.763Z,5.45
2022-11-30T15:22:27.422Z,5.45
2022-11-30T15:25:34.405Z,5.41
2022-11-30T15:28:41.142Z,5.41
2022-11-30T15:31:47.963Z,5.40
2022-11-30T15:34:56.758Z,5.38
2022-11-30T15:38:03.543Z,5.34
2022-11-30T15:41:10.917Z,5.35
2022-11-30T15:44:18.406Z,5.32
2022-11-30T15:47:25.067Z,5.30
2022-11-30T15:50:32.313Z,5.30
2022-11-30T15:53:39.516Z,5.25
2022-11-30T15:56:46.285Z,5.25
2022-11-30T15:59:53.565Z,5.25
2022-11-30T16:03:00.765Z,5.23
2022-11-30T16:06:07.877Z,5.22
2022-11-30T16:09:15.502Z,5.20
2022-11-30T16:12:22.459Z,5.20
2022-11-30T16:15:29.490Z,5.20
2022-11-30T16:18:36.900Z,5.19
2022-11-30T16:21:43.980Z,5.19
2022-11-30T16:24:51.108Z,5.20
2022-11-30T16:27:58.140Z,5.23
2022-11-30T16:31:05.681Z,5.25
2022-11-30T16:34:12.895Z,5.23
2022-11-30T16:37:20.063Z,5.25
2022-11-30T16:40:27.408Z,5.25
2022-11-30T16:43:34.281Z,5.27
2022-11-30T16:46:41.444Z,5.27
2022-11-30T16:49:48.950Z,5.25
2022-11-30T16:52:55.885Z,5.20
2022-11-30T16:56:03.356Z,5.17
2022-11-30T16:59:16.493Z,5.17
2022-11-30T17:02:12.964Z,5.16
2022-11-30T17:05:20.748Z,5.14
2022-11-30T17:08:27.907Z,5.14
2022-11-30T17:11:35.146Z,5.14
2022-11-30T17:14:42.678Z,5.13
2022-11-30T17:17:49.850Z,5.14
2022-11-30T17:20:56.908Z,5.13
2022-11-30T17:24:04.099Z,5.13
2022-11-30T17:27:13.119Z,5.12
2022-11-30T17:30:19.824Z,5.13
2022-11-30T17:33:26.551Z,5.10
2022-11-30T17:36:33.821Z,5.09
2022-11-30T17:39:40.781Z,5.10
2022-11-30T17:42:47.283Z,5.09
2022-11-30T17:45:54.759Z,5.09
2022-11-30T17:49:02.014Z,5.05
2022-11-30T17:52:08.583Z,5.04
2022-11-30T17:55:15.894Z,5.04
2022-11-30T17:58:22.467Z,5.02
2022-11-30T18:01:30.152Z,5.01
2022-11-30T18:04:37.455Z,5.01
2022-11-30T18:07:44.005Z,4.99
2022-11-30T18:10:51.204Z,4.99
2022-11-30T18:13:58.437Z,4.96
2022-11-30T18:17:05.010Z,4.95
2022-11-30T18:20:11.981Z,4.94
2022-11-30T18:23:18.407Z,4.92
2022-11-30T18:26:25.267Z,4.91
2022-11-30T18:29:32.457Z,4.89
2022-11-30T18:32:38.961Z,4.88
2022-11-30T18:35:46.297Z,4.84
2022-11-30T18:38:53.390Z,4.80
2022-11-30T18:41:59.850Z,4.77
2022-11-30T18:45:06.744Z,4.75
2022-11-30T18:48:13.825Z,4.72
2022-11-30T18:51:21.133Z,4.72
2022-11-30T18:54:30.396Z,4.70
2022-11-30T18:57:37.881Z,4.69
2022-11-30T19:00:44.915Z,4.64
2022-11-30T19:03:52.233Z,4.59
2022-11-30T19:07:00.543Z,4.59
2022-11-30T19:10:07.703Z,4.58
2022-11-30T19:13:14.563Z,4.58
2022-11-30T19:16:22.037Z,4.57
2022-11-30T19:19:28.620Z,4.58
2022-11-30T19:22:35.227Z,4.58
2022-11-30T19:25:42.246Z,4.55
2022-11-30T19:28:49.077Z,4.51
2022-11-30T19:31:55.527Z,4.46
2022-11-30T19:35:02.378Z,4.46
2022-11-30T19:38:08.845Z,4.44
2022-11-30T19:41:16.161Z,4.44
2022-11-30T19:44:22.999Z,4.43
2022-11-30T19:47:29.420Z,4.42
2022-11-30T19:50:36.630Z,4.42
2022-11-30T19:53:43.022Z,4.42
2022-11-30T19:56:49.541Z,4.40
2022-11-30T19:59:56.833Z,4.37
2022-11-30T20:03:03.407Z,4.37
2022-11-30T20:06:10.462Z,4.37
2022-11-30T20:09:17.273Z,4.39
2022-11-30T20:12:23.681Z,4.39
2022-11-30T20:15:30.563Z,4.39
2022-11-30T20:18:41.280Z,4.37
2022-11-30T20:21:38.605Z,4.42
2022-11-30T20:24:46.232Z,4.40
2022-11-30T20:27:53.148Z,4.39
2022-11-30T20:31:00.777Z,4.36
2022-11-30T20:34:07.666Z,4.37
2022-11-30T20:37:14.682Z,4.37
2022-11-30T20:40:21.528Z,4.39
2022-11-30T20:43:28.264Z,4.37
2022-11-30T20:46:35.500Z,4.37
2022-11-30T20:49:42.307Z,4.36
2022-11-30T20:52:49.249Z,4.39
2022-11-30T20:55:56.450Z,4.37
2022-11-30T20:59:03.361Z,4.37
2022-11-30T21:02:10.454Z,4.34
2022-11-30T21:05:18.129Z,4.29
2022-11-30T21:08:25.283Z,4.26
2022-11-30T21:11:33.303Z,4.24
2022-11-30T21:14:41.242Z,4.22
2022-11-30T21:17:48.265Z,4.21
2022-11-30T21:20:56.221Z,4.18
2022-11-30T21:24:04.116Z,4.14
2022-11-30T21:27:11.338Z,4.14
2022-11-30T21:30:19.265Z,4.15
2022-11-30T21:33:26.745Z,4.14
2022-11-30T21:36:34.355Z,4.10
2022-11-30T21:39:42.166Z,4.07
2022-11-30T21:42:49.292Z,4.03
2022-11-30T21:45:57.238Z,4.03
2022-11-30T21:49:04.877Z,4.03
2022-11-30T21:52:11.835Z,4.01
2022-11-30T21:55:19.672Z,4.00
2022-11-30T21:58:27.206Z,4.00
2022-11-30T22:01:34.653Z,4.00
2022-11-30T22:04:42.449Z,4.00
2022-11-30T22:07:49.606Z,4.00
2022-11-30T22:10:57.261Z,4.01
2022-11-30T22:14:04.800Z,4.01
2022-11-30T22:17:11.971Z,4.01
2022-11-30T22:20:19.893Z,4.03
2022-11-30T22:23:27.588Z,4.06
2022-11-30T22:26:35.613Z,4.04
2022-11-30T22:29:42.865Z,4.06
2022-11-30T22:32:50.415Z,4.04
2022-11-30T22:35:57.650Z,4.06
2022-11-30T22:39:04.481Z,4.04
2022-11-30T22:42:11.289Z,4.06
2022-11-30T22:45:18.416Z,4.07
2022-11-30T22:48:25.225Z,4.08
2022-11-30T22:51:32.057Z,4.10
2022-11-30T22:54:39.500Z,4.08
2022-11-30T22:57:45.936Z,4.01
2022-11-30T23:00:53.177Z,3.98
2022-11-30T23:04:00.328Z,3.94
2022-11-30T23:07:06.758Z,3.92
2022-11-30T23:10:13.768Z,3.82
2022-11-30T23:13:20.740Z,3.76
2022-11-30T23:16:27.762Z,3.70
2022-11-30T23:19:34.570Z,3.64
2022-11-30T23:22:41.321Z,3.54
2022-11-30T23:25:48.300Z,3.49
2022-11-30T23:28:55.161Z,3.43
2022-11-30T23:32:02.135Z,3.36
2022-11-30T23:35:09.001Z,3.28
2022-11-30T23:38:15.402Z,3.23
2022-11-30T23:41:22.603Z,3.18
2022-11-30T23:44:29.821Z,3.10
2022-11-30T23:47:36.263Z,3.07
2022-11-30T23:50:43.478Z,3.05
2022-11-30T23:53:50.228Z,3.02
2022-11-30T23:56:57.118Z,3.03
